sensor_id;sensor_type;location;lat;lon;timestamp;P1;durP1;ratioP1;P2;durP2;ratioP2
12880;SDS011;6508;53.786;9.996;2024-03-06T00:01:19;18.38;;;16.58;;
12880;SDS011;6508;53.786;9.996;2024-03-06T00:03:47;16.80;;;15.57;;
12880;SDS011;6508;53.786;9.996;2024-03-06T00:06:15;17.90;;;16.30;;
12880;SDS011;6508;53.786;9.996;2024-03-06T00:08:43;17.88;;;16.25;;
12880;SDS011;6508;53.786;9.996;2024-03-06T00:11:10;16.08;;;14.40;;
12880;SDS011;6508;53.786;9.996;2024-03-06T00:13:39;16.08;;;14.50;;
12880;SDS011;6508;53.786;9.996;2024-03-06T00:16:07;17.30;;;15.25;;
12880;SDS011;6508;53.786;9.996;2024-03-06T00:18:35;16.92;;;15.20;;
12880;SDS011;6508;53.786;9.996;2024-03-06T00:21:03;18.23;;;15.32;;
12880;SDS011;6508;53.786;9.996;2024-03-06T00:23:32;16.88;;;15.35;;
12880;SDS011;6508;53.786;9.996;2024-03-06T00:26:02;17.48;;;15.90;;
12880;SDS011;6508;53.786;9.996;2024-03-06T00:28:29;17.25;;;15.60;;
12880;SDS011;6508;53.786;9.996;2024-03-06T00:30:59;16.75;;;15.30;;
12880;SDS011;6508;53.786;9.996;2024-03-06T00:33:27;17.52;;;14.93;;
12880;SDS011;6508;53.786;9.996;2024-03-06T00:35:54;17.63;;;16.02;;
12880;SDS011;6508;53.786;9.996;2024-03-06T00:38:22;17.10;;;15.50;;
12880;SDS011;6508;53.786;9.996;2024-03-06T00:40:50;17.30;;;15.85;;
12880;SDS011;6508;53.786;9.996;2024-03-06T00:43:19;16.63;;;15.32;;
12880;SDS011;6508;53.786;9.996;2024-03-06T00:45:47;16.65;;;15.30;;
12880;SDS011;6508;53.786;9.996;2024-03-06T00:48:16;16.52;;;15.10;;
12880;SDS011;6508;53.786;9.996;2024-03-06T00:50:46;16.67;;;15.20;;
12880;SDS011;6508;53.786;9.996;2024-03-06T00:53:13;17.00;;;15.70;;
12880;SDS011;6508;53.786;9.996;2024-03-06T00:55:41;17.50;;;15.90;;
12880;SDS011;6508;53.786;9.996;2024-03-06T00:58:10;17.00;;;15.55;;
12880;SDS011;6508;53.786;9.996;2024-03-06T01:00:37;17.88;;;16.27;;
12880;SDS011;6508;53.786;9.996;2024-03-06T01:03:05;17.40;;;15.70;;
12880;SDS011;6508;53.786;9.996;2024-03-06T01:05:34;16.70;;;15.30;;
12880;SDS011;6508;53.786;9.996;2024-03-06T01:08:02;17.65;;;16.27;;
12880;SDS011;6508;53.786;9.996;2024-03-06T01:10:30;17.58;;;16.13;;
12880;SDS011;6508;53.786;9.996;2024-03-06T01:12:58;18.20;;;16.67;;
12880;SDS011;6508;53.786;9.996;2024-03-06T01:15:25;18.33;;;16.73;;
12880;SDS011;6508;53.786;9.996;2024-03-06T01:17:53;18.23;;;16.50;;
12880;SDS011;6508;53.786;9.996;2024-03-06T01:20:21;18.75;;;16.92;;
12880;SDS011;6508;53.786;9.996;2024-03-06T01:22:50;18.15;;;16.45;;
12880;SDS011;6508;53.786;9.996;2024-03-06T01:25:18;18.27;;;16.75;;
12880;SDS011;6508;53.786;9.996;2024-03-06T01:27:47;18.38;;;16.90;;
12880;SDS011;6508;53.786;9.996;2024-03-06T01:30:15;18.63;;;17.13;;
12880;SDS011;6508;53.786;9.996;2024-03-06T01:32:43;19.23;;;17.20;;
12880;SDS011;6508;53.786;9.996;2024-03-06T01:35:11;18.73;;;17.08;;
12880;SDS011;6508;53.786;9.996;2024-03-06T01:37:39;18.52;;;16.75;;
12880;SDS011;6508;53.786;9.996;2024-03-06T01:40:09;18.92;;;17.20;;
12880;SDS011;6508;53.786;9.996;2024-03-06T01:42:38;19.60;;;17.70;;
12880;SDS011;6508;53.786;9.996;2024-03-06T01:45:07;18.75;;;16.92;;
12880;SDS011;6508;53.786;9.996;2024-03-06T01:47:35;17.70;;;16.00;;
12880;SDS011;6508;53.786;9.996;2024-03-06T01:50:04;18.45;;;16.40;;
12880;SDS011;6508;53.786;9.996;2024-03-06T01:52:36;18.50;;;16.88;;
12880;SDS011;6508;53.786;9.996;2024-03-06T01:55:06;18.27;;;16.60;;
12880;SDS011;6508;53.786;9.996;2024-03-06T01:57:36;18.13;;;16.60;;
12880;SDS011;6508;53.786;9.996;2024-03-06T02:00:06;19.20;;;17.35;;
12880;SDS011;6508;53.786;9.996;2024-03-06T02:02:40;18.38;;;16.70;;
12880;SDS011;6508;53.786;9.996;2024-03-06T02:05:08;17.80;;;16.23;;
12880;SDS011;6508;53.786;9.996;2024-03-06T02:07:38;18.15;;;16.48;;
12880;SDS011;6508;53.786;9.996;2024-03-06T02:10:07;18.90;;;17.10;;
12880;SDS011;6508;53.786;9.996;2024-03-06T02:12:37;18.08;;;16.25;;
12880;SDS011;6508;53.786;9.996;2024-03-06T02:15:06;18.45;;;16.67;;
12880;SDS011;6508;53.786;9.996;2024-03-06T02:17:34;19.02;;;17.13;;
12880;SDS011;6508;53.786;9.996;2024-03-06T02:20:02;19.35;;;17.48;;
12880;SDS011;6508;53.786;9.996;2024-03-06T02:22:34;19.00;;;16.92;;
12880;SDS011;6508;53.786;9.996;2024-03-06T02:25:01;18.45;;;16.60;;
12880;SDS011;6508;53.786;9.996;2024-03-06T02:27:29;18.67;;;17.17;;
12880;SDS011;6508;53.786;9.996;2024-03-06T02:29:58;19.13;;;17.42;;
12880;SDS011;6508;53.786;9.996;2024-03-06T02:32:25;17.88;;;16.48;;
12880;SDS011;6508;53.786;9.996;2024-03-06T02:34:54;18.35;;;16.83;;
12880;SDS011;6508;53.786;9.996;2024-03-06T02:37:22;18.92;;;17.25;;
12880;SDS011;6508;53.786;9.996;2024-03-06T02:39:52;18.70;;;17.15;;
12880;SDS011;6508;53.786;9.996;2024-03-06T02:42:20;18.75;;;17.15;;
12880;SDS011;6508;53.786;9.996;2024-03-06T02:44:49;18.52;;;16.88;;
12880;SDS011;6508;53.786;9.996;2024-03-06T02:47:17;17.90;;;16.42;;
12880;SDS011;6508;53.786;9.996;2024-03-06T02:49:45;18.33;;;16.63;;
12880;SDS011;6508;53.786;9.996;2024-03-06T02:52:13;18.02;;;16.52;;
12880;SDS011;6508;53.786;9.996;2024-03-06T02:54:41;17.90;;;16.38;;
12880;SDS011;6508;53.786;9.996;2024-03-06T02:57:10;17.63;;;16.27;;
12880;SDS011;6508;53.786;9.996;2024-03-06T02:59:39;18.33;;;16.73;;
12880;SDS011;6508;53.786;9.996;2024-03-06T03:02:07;18.02;;;16.35;;
12880;SDS011;6508;53.786;9.996;2024-03-06T03:04:34;17.67;;;16.20;;
12880;SDS011;6508;53.786;9.996;2024-03-06T03:07:03;17.83;;;16.42;;
12880;SDS011;6508;53.786;9.996;2024-03-06T03:09:32;18.50;;;16.92;;
12880;SDS011;6508;53.786;9.996;2024-03-06T03:11:59;16.90;;;15.40;;
12880;SDS011;6508;53.786;9.996;2024-03-06T03:14:28;18.38;;;16.67;;
12880;SDS011;6508;53.786;9.996;2024-03-06T03:16:56;17.98;;;16.38;;
12880;SDS011;6508;53.786;9.996;2024-03-06T03:19:23;17.52;;;16.20;;
12880;SDS011;6508;53.786;9.996;2024-03-06T03:21:51;17.27;;;15.98;;
12880;SDS011;6508;53.786;9.996;2024-03-06T03:24:19;17.85;;;16.35;;
12880;SDS011;6508;53.786;9.996;2024-03-06T03:26:48;18.30;;;16.83;;
12880;SDS011;6508;53.786;9.996;2024-03-06T03:29:17;17.00;;;15.68;;
12880;SDS011;6508;53.786;9.996;2024-03-06T03:31:46;16.52;;;15.30;;
12880;SDS011;6508;53.786;9.996;2024-03-06T03:34:13;16.90;;;15.52;;
12880;SDS011;6508;53.786;9.996;2024-03-06T03:36:41;16.05;;;15.02;;
12880;SDS011;6508;53.786;9.996;2024-03-06T03:39:10;16.67;;;15.38;;
12880;SDS011;6508;53.786;9.996;2024-03-06T03:41:43;16.70;;;15.35;;
12880;SDS011;6508;53.786;9.996;2024-03-06T03:44:11;17.38;;;15.85;;
12880;SDS011;6508;53.786;9.996;2024-03-06T03:46:39;17.60;;;16.20;;
12880;SDS011;6508;53.786;9.996;2024-03-06T03:49:09;17.50;;;16.17;;
12880;SDS011;6508;53.786;9.996;2024-03-06T03:51:36;16.90;;;15.48;;
12880;SDS011;6508;53.786;9.996;2024-03-06T03:54:04;17.35;;;15.75;;
12880;SDS011;6508;53.786;9.996;2024-03-06T03:56:33;16.90;;;15.68;;
12880;SDS011;6508;53.786;9.996;2024-03-06T03:59:01;16.77;;;15.48;;
12880;SDS011;6508;53.786;9.996;2024-03-06T04:01:29;17.15;;;15.63;;
12880;SDS011;6508;53.786;9.996;2024-03-06T04:03:57;17.90;;;16.20;;
12880;SDS011;6508;53.786;9.996;2024-03-06T04:06:27;17.13;;;15.77;;
12880;SDS011;6508;53.786;9.996;2024-03-06T04:08:55;16.52;;;15.32;;
12880;SDS011;6508;53.786;9.996;2024-03-06T04:11:23;17.33;;;15.80;;
12880;SDS011;6508;53.786;9.996;2024-03-06T04:13:51;16.90;;;15.55;;
12880;SDS011;6508;53.786;9.996;2024-03-06T04:16:19;16.85;;;15.60;;
12880;SDS011;6508;53.786;9.996;2024-03-06T04:18:47;18.10;;;16.52;;
12880;SDS011;6508;53.786;9.996;2024-03-06T04:21:15;15.93;;;14.80;;
12880;SDS011;6508;53.786;9.996;2024-03-06T04:23:45;16.58;;;15.38;;
12880;SDS011;6508;53.786;9.996;2024-03-06T04:26:13;17.00;;;15.73;;
12880;SDS011;6508;53.786;9.996;2024-03-06T04:28:41;16.67;;;15.45;;
12880;SDS011;6508;53.786;9.996;2024-03-06T04:31:09;16.08;;;14.85;;
12880;SDS011;6508;53.786;9.996;2024-03-06T04:33:37;17.02;;;15.70;;
12880;SDS011;6508;53.786;9.996;2024-03-06T04:36:05;17.10;;;15.90;;
12880;SDS011;6508;53.786;9.996;2024-03-06T04:38:34;16.40;;;14.95;;
12880;SDS011;6508;53.786;9.996;2024-03-06T04:41:04;16.33;;;15.23;;
12880;SDS011;6508;53.786;9.996;2024-03-06T04:43:32;16.85;;;15.65;;
12880;SDS011;6508;53.786;9.996;2024-03-06T04:46:00;16.55;;;15.32;;
12880;SDS011;6508;53.786;9.996;2024-03-06T04:48:28;16.58;;;15.38;;
12880;SDS011;6508;53.786;9.996;2024-03-06T04:50:56;15.88;;;14.77;;
12880;SDS011;6508;53.786;9.996;2024-03-06T04:53:24;16.40;;;15.25;;
12880;SDS011;6508;53.786;9.996;2024-03-06T04:55:52;16.55;;;15.35;;
12880;SDS011;6508;53.786;9.996;2024-03-06T04:58:21;17.13;;;15.93;;
12880;SDS011;6508;53.786;9.996;2024-03-06T05:00:49;17.00;;;15.80;;
12880;SDS011;6508;53.786;9.996;2024-03-06T05:03:17;16.98;;;15.63;;
12880;SDS011;6508;53.786;9.996;2024-03-06T05:06:02;17.02;;;15.90;;
12880;SDS011;6508;53.786;9.996;2024-03-06T05:08:49;16.27;;;15.18;;
12880;SDS011;6508;53.786;9.996;2024-03-06T05:11:34;16.70;;;15.40;;
12880;SDS011;6508;53.786;9.996;2024-03-06T05:14:21;16.88;;;15.55;;
12880;SDS011;6508;53.786;9.996;2024-03-06T05:17:06;16.67;;;15.43;;
12880;SDS011;6508;53.786;9.996;2024-03-06T05:19:54;17.00;;;15.77;;
12880;SDS011;6508;53.786;9.996;2024-03-06T05:22:40;15.95;;;14.85;;
12880;SDS011;6508;53.786;9.996;2024-03-06T05:25:25;16.83;;;15.60;;
12880;SDS011;6508;53.786;9.996;2024-03-06T05:28:11;17.05;;;15.85;;
12880;SDS011;6508;53.786;9.996;2024-03-06T05:30:57;16.75;;;15.55;;
12880;SDS011;6508;53.786;9.996;2024-03-06T05:33:44;15.82;;;14.77;;
12880;SDS011;6508;53.786;9.996;2024-03-06T05:36:30;17.75;;;16.35;;
12880;SDS011;6508;53.786;9.996;2024-03-06T05:39:15;16.98;;;15.68;;
12880;SDS011;6508;53.786;9.996;2024-03-06T05:42:02;17.38;;;16.02;;
12880;SDS011;6508;53.786;9.996;2024-03-06T05:44:48;16.30;;;15.07;;
12880;SDS011;6508;53.786;9.996;2024-03-06T05:47:36;16.80;;;15.40;;
12880;SDS011;6508;53.786;9.996;2024-03-06T05:50:22;16.40;;;15.30;;
12880;SDS011;6508;53.786;9.996;2024-03-06T05:53:07;16.40;;;15.30;;
12880;SDS011;6508;53.786;9.996;2024-03-06T05:55:52;15.52;;;14.52;;
12880;SDS011;6508;53.786;9.996;2024-03-06T05:58:38;16.52;;;15.32;;
12880;SDS011;6508;53.786;9.996;2024-03-06T06:01:06;17.60;;;16.20;;
12880;SDS011;6508;53.786;9.996;2024-03-06T06:03:36;16.77;;;15.38;;
12880;SDS011;6508;53.786;9.996;2024-03-06T06:06:05;16.60;;;15.40;;
12880;SDS011;6508;53.786;9.996;2024-03-06T06:08:32;17.40;;;16.10;;
12880;SDS011;6508;53.786;9.996;2024-03-06T06:11:01;16.88;;;15.60;;
12880;SDS011;6508;53.786;9.996;2024-03-06T06:13:30;16.35;;;15.15;;
12880;SDS011;6508;53.786;9.996;2024-03-06T06:15:58;16.40;;;15.10;;
12880;SDS011;6508;53.786;9.996;2024-03-06T06:18:26;16.17;;;15.07;;
12880;SDS011;6508;53.786;9.996;2024-03-06T06:20:55;16.45;;;15.23;;
12880;SDS011;6508;53.786;9.996;2024-03-06T06:23:24;15.88;;;14.77;;
12880;SDS011;6508;53.786;9.996;2024-03-06T06:25:52;16.40;;;15.18;;
12880;SDS011;6508;53.786;9.996;2024-03-06T06:28:19;16.65;;;15.45;;
12880;SDS011;6508;53.786;9.996;2024-03-06T06:30:49;17.27;;;15.93;;
12880;SDS011;6508;53.786;9.996;2024-03-06T06:33:18;17.02;;;15.80;;
12880;SDS011;6508;53.786;9.996;2024-03-06T06:35:47;17.58;;;16.38;;
12880;SDS011;6508;53.786;9.996;2024-03-06T06:38:16;18.40;;;17.00;;
12880;SDS011;6508;53.786;9.996;2024-03-06T06:40:44;18.17;;;16.77;;
12880;SDS011;6508;53.786;9.996;2024-03-06T06:43:12;18.13;;;16.60;;
12880;SDS011;6508;53.786;9.996;2024-03-06T06:45:40;16.58;;;15.20;;
12880;SDS011;6508;53.786;9.996;2024-03-06T06:48:08;17.77;;;16.38;;
12880;SDS011;6508;53.786;9.996;2024-03-06T06:50:36;18.38;;;16.77;;
12880;SDS011;6508;53.786;9.996;2024-03-06T06:53:04;18.83;;;17.13;;
12880;SDS011;6508;53.786;9.996;2024-03-06T06:55:34;18.55;;;17.05;;
12880;SDS011;6508;53.786;9.996;2024-03-06T06:58:03;17.17;;;15.68;;
12880;SDS011;6508;53.786;9.996;2024-03-06T07:00:31;17.98;;;16.48;;
12880;SDS011;6508;53.786;9.996;2024-03-06T07:02:59;17.67;;;16.20;;
12880;SDS011;6508;53.786;9.996;2024-03-06T07:05:27;16.90;;;15.50;;
12880;SDS011;6508;53.786;9.996;2024-03-06T07:07:55;17.30;;;15.95;;
12880;SDS011;6508;53.786;9.996;2024-03-06T07:10:23;18.13;;;16.77;;
12880;SDS011;6508;53.786;9.996;2024-03-06T07:12:52;16.77;;;15.50;;
12880;SDS011;6508;53.786;9.996;2024-03-06T07:15:20;17.27;;;15.98;;
12880;SDS011;6508;53.786;9.996;2024-03-06T07:17:50;17.08;;;15.77;;
12880;SDS011;6508;53.786;9.996;2024-03-06T07:20:18;16.38;;;15.10;;
12880;SDS011;6508;53.786;9.996;2024-03-06T07:22:45;17.33;;;15.82;;
12880;SDS011;6508;53.786;9.996;2024-03-06T07:25:13;17.35;;;15.93;;
12880;SDS011;6508;53.786;9.996;2024-03-06T07:27:41;17.00;;;15.50;;
12880;SDS011;6508;53.786;9.996;2024-03-06T07:30:10;17.35;;;15.95;;
12880;SDS011;6508;53.786;9.996;2024-03-06T07:32:41;15.80;;;14.60;;
12880;SDS011;6508;53.786;9.996;2024-03-06T07:35:08;16.35;;;15.05;;
12880;SDS011;6508;53.786;9.996;2024-03-06T07:37:36;16.45;;;15.25;;
12880;SDS011;6508;53.786;9.996;2024-03-06T07:40:05;16.30;;;15.00;;
12880;SDS011;6508;53.786;9.996;2024-03-06T07:42:33;14.70;;;13.55;;
12880;SDS011;6508;53.786;9.996;2024-03-06T07:45:01;15.30;;;14.13;;
12880;SDS011;6508;53.786;9.996;2024-03-06T07:47:31;14.88;;;13.88;;
12880;SDS011;6508;53.786;9.996;2024-03-06T07:49:59;14.90;;;13.90;;
12880;SDS011;6508;53.786;9.996;2024-03-06T07:52:27;15.55;;;14.35;;
12880;SDS011;6508;53.786;9.996;2024-03-06T07:54:56;15.40;;;14.40;;
12880;SDS011;6508;53.786;9.996;2024-03-06T07:57:23;14.85;;;13.85;;
12880;SDS011;6508;53.786;9.996;2024-03-06T07:59:52;14.65;;;13.60;;
12880;SDS011;6508;53.786;9.996;2024-03-06T08:02:21;14.00;;;12.90;;
12880;SDS011;6508;53.786;9.996;2024-03-06T08:04:50;14.27;;;13.27;;
12880;SDS011;6508;53.786;9.996;2024-03-06T08:07:18;15.05;;;14.05;;
12880;SDS011;6508;53.786;9.996;2024-03-06T08:09:46;14.35;;;13.38;;
12880;SDS011;6508;53.786;9.996;2024-03-06T08:12:14;13.98;;;13.07;;
12880;SDS011;6508;53.786;9.996;2024-03-06T08:14:41;14.75;;;13.75;;
12880;SDS011;6508;53.786;9.996;2024-03-06T08:17:09;14.65;;;13.55;;
12880;SDS011;6508;53.786;9.996;2024-03-06T08:19:37;16.10;;;14.80;;
12880;SDS011;6508;53.786;9.996;2024-03-06T08:22:06;14.10;;;12.98;;
12880;SDS011;6508;53.786;9.996;2024-03-06T08:24:34;13.60;;;12.45;;
12880;SDS011;6508;53.786;9.996;2024-03-06T08:27:01;12.57;;;11.70;;
12880;SDS011;6508;53.786;9.996;2024-03-06T08:29:29;13.93;;;12.73;;
12880;SDS011;6508;53.786;9.996;2024-03-06T08:31:57;12.50;;;11.70;;
12880;SDS011;6508;53.786;9.996;2024-03-06T08:34:26;12.45;;;11.65;;
12880;SDS011;6508;53.786;9.996;2024-03-06T08:36:54;12.45;;;11.48;;
12880;SDS011;6508;53.786;9.996;2024-03-06T08:39:24;12.00;;;11.20;;
12880;SDS011;6508;53.786;9.996;2024-03-06T08:41:51;11.40;;;10.60;;
12880;SDS011;6508;53.786;9.996;2024-03-06T08:44:20;12.75;;;11.30;;
12880;SDS011;6508;53.786;9.996;2024-03-06T08:46:48;11.75;;;11.05;;
12880;SDS011;6508;53.786;9.996;2024-03-06T08:49:16;12.32;;;11.45;;
12880;SDS011;6508;53.786;9.996;2024-03-06T08:51:44;12.65;;;11.65;;
12880;SDS011;6508;53.786;9.996;2024-03-06T08:54:12;10.63;;;10.02;;
12880;SDS011;6508;53.786;9.996;2024-03-06T08:56:43;10.77;;;10.00;;
12880;SDS011;6508;53.786;9.996;2024-03-06T08:59:11;10.50;;;9.80;;
12880;SDS011;6508;53.786;9.996;2024-03-06T09:01:39;9.85;;;9.07;;
12880;SDS011;6508;53.786;9.996;2024-03-06T09:04:07;9.57;;;8.80;;
12880;SDS011;6508;53.786;9.996;2024-03-06T09:06:35;9.43;;;8.82;;
12880;SDS011;6508;53.786;9.996;2024-03-06T09:09:02;9.57;;;8.85;;
12880;SDS011;6508;53.786;9.996;2024-03-06T09:11:32;9.77;;;9.00;;
12880;SDS011;6508;53.786;9.996;2024-03-06T09:14:01;9.20;;;8.60;;
12880;SDS011;6508;53.786;9.996;2024-03-06T09:16:31;9.25;;;8.65;;
12880;SDS011;6508;53.786;9.996;2024-03-06T09:18:59;9.20;;;8.60;;
12880;SDS011;6508;53.786;9.996;2024-03-06T09:21:27;9.50;;;8.90;;
12880;SDS011;6508;53.786;9.996;2024-03-06T09:23:54;9.20;;;8.60;;
12880;SDS011;6508;53.786;9.996;2024-03-06T09:26:22;8.70;;;8.10;;
12880;SDS011;6508;53.786;9.996;2024-03-06T09:28:50;7.97;;;7.38;;
12880;SDS011;6508;53.786;9.996;2024-03-06T09:31:19;7.15;;;6.65;;
12880;SDS011;6508;53.786;9.996;2024-03-06T09:33:47;8.02;;;7.45;;
12880;SDS011;6508;53.786;9.996;2024-03-06T09:36:15;7.60;;;7.10;;
12880;SDS011;6508;53.786;9.996;2024-03-06T09:38:43;7.63;;;7.13;;
12880;SDS011;6508;53.786;9.996;2024-03-06T09:41:10;7.45;;;6.85;;
12880;SDS011;6508;53.786;9.996;2024-03-06T09:43:38;8.13;;;7.20;;
12880;SDS011;6508;53.786;9.996;2024-03-06T09:46:08;7.22;;;6.65;;
12880;SDS011;6508;53.786;9.996;2024-03-06T09:48:37;7.03;;;6.50;;
12880;SDS011;6508;53.786;9.996;2024-03-06T09:51:10;6.78;;;6.28;;
12880;SDS011;6508;53.786;9.996;2024-03-06T09:53:39;7.07;;;6.68;;
12880;SDS011;6508;53.786;9.996;2024-03-06T09:56:07;6.55;;;6.15;;
12880;SDS011;6508;53.786;9.996;2024-03-06T09:58:35;6.60;;;6.20;;
12880;SDS011;6508;53.786;9.996;2024-03-06T10:01:04;7.28;;;6.57;;
12880;SDS011;6508;53.786;9.996;2024-03-06T10:03:33;7.03;;;6.63;;
12880;SDS011;6508;53.786;9.996;2024-03-06T10:06:02;6.75;;;6.32;;
12880;SDS011;6508;53.786;9.996;2024-03-06T10:08:35;7.15;;;6.60;;
12880;SDS011;6508;53.786;9.996;2024-03-06T10:11:04;7.45;;;6.85;;
12880;SDS011;6508;53.786;9.996;2024-03-06T10:13:33;7.75;;;7.15;;
12880;SDS011;6508;53.786;9.996;2024-03-06T10:16:01;7.35;;;6.82;;
12880;SDS011;6508;53.786;9.996;2024-03-06T10:18:31;7.05;;;6.55;;
12880;SDS011;6508;53.786;9.996;2024-03-06T10:20:59;7.22;;;6.78;;
12880;SDS011;6508;53.786;9.996;2024-03-06T10:23:29;7.30;;;6.80;;
12880;SDS011;6508;53.786;9.996;2024-03-06T10:25:57;8.45;;;7.40;;
12880;SDS011;6508;53.786;9.996;2024-03-06T10:28:25;8.35;;;7.65;;
12880;SDS011;6508;53.786;9.996;2024-03-06T10:31:02;7.43;;;6.82;;
12880;SDS011;6508;53.786;9.996;2024-03-06T10:33:31;7.63;;;7.03;;
12880;SDS011;6508;53.786;9.996;2024-03-06T10:35:59;8.38;;;7.60;;
12880;SDS011;6508;53.786;9.996;2024-03-06T10:38:33;7.55;;;6.85;;
12880;SDS011;6508;53.786;9.996;2024-03-06T10:41:03;8.00;;;7.40;;
12880;SDS011;6508;53.786;9.996;2024-03-06T10:43:34;7.05;;;6.65;;
12880;SDS011;6508;53.786;9.996;2024-03-06T10:46:04;6.90;;;6.50;;
12880;SDS011;6508;53.786;9.996;2024-03-06T10:48:33;7.60;;;7.00;;
12880;SDS011;6508;53.786;9.996;2024-03-06T10:51:02;7.32;;;6.82;;
12880;SDS011;6508;53.786;9.996;2024-03-06T10:53:32;7.70;;;7.10;;
12880;SDS011;6508;53.786;9.996;2024-03-06T10:56:02;7.00;;;6.40;;
12880;SDS011;6508;53.786;9.996;2024-03-06T10:58:33;7.35;;;6.68;;
12880;SDS011;6508;53.786;9.996;2024-03-06T11:01:01;6.78;;;6.30;;
12880;SDS011;6508;53.786;9.996;2024-03-06T11:03:29;7.43;;;6.93;;
12880;SDS011;6508;53.786;9.996;2024-03-06T11:05:58;7.43;;;6.70;;
12880;SDS011;6508;53.786;9.996;2024-03-06T11:08:30;7.65;;;6.95;;
12880;SDS011;6508;53.786;9.996;2024-03-06T11:11:20;7.90;;;7.10;;
12880;SDS011;6508;53.786;9.996;2024-03-06T11:13:49;8.00;;;7.45;;
12880;SDS011;6508;53.786;9.996;2024-03-06T11:16:17;9.00;;;8.30;;
12880;SDS011;6508;53.786;9.996;2024-03-06T11:18:45;7.05;;;6.47;;
12880;SDS011;6508;53.786;9.996;2024-03-06T11:21:29;7.13;;;6.57;;
12880;SDS011;6508;53.786;9.996;2024-03-06T11:24:12;7.57;;;7.05;;
12880;SDS011;6508;53.786;9.996;2024-03-06T11:26:47;6.63;;;6.22;;
12880;SDS011;6508;53.786;9.996;2024-03-06T11:29:15;7.95;;;7.25;;
12880;SDS011;6508;53.786;9.996;2024-03-06T11:32:00;7.55;;;7.05;;
12880;SDS011;6508;53.786;9.996;2024-03-06T11:34:29;7.20;;;6.50;;
12880;SDS011;6508;53.786;9.996;2024-03-06T11:36:57;7.78;;;7.20;;
12880;SDS011;6508;53.786;9.996;2024-03-06T11:39:29;8.00;;;7.40;;
12880;SDS011;6508;53.786;9.996;2024-03-06T11:41:59;7.03;;;6.53;;
12880;SDS011;6508;53.786;9.996;2024-03-06T11:44:27;7.78;;;7.18;;
12880;SDS011;6508;53.786;9.996;2024-03-06T11:46:57;7.45;;;6.85;;
12880;SDS011;6508;53.786;9.996;2024-03-06T11:49:25;8.05;;;7.28;;
12880;SDS011;6508;53.786;9.996;2024-03-06T11:51:56;7.93;;;7.30;;
12880;SDS011;6508;53.786;9.996;2024-03-06T11:54:24;7.65;;;7.15;;
12880;SDS011;6508;53.786;9.996;2024-03-06T11:56:54;7.55;;;6.95;;
12880;SDS011;6508;53.786;9.996;2024-03-06T11:59:23;7.72;;;7.13;;
12880;SDS011;6508;53.786;9.996;2024-03-06T12:01:52;7.57;;;7.07;;
12880;SDS011;6508;53.786;9.996;2024-03-06T12:04:20;7.15;;;6.65;;
12880;SDS011;6508;53.786;9.996;2024-03-06T12:06:48;7.22;;;6.72;;
12880;SDS011;6508;53.786;9.996;2024-03-06T12:09:16;8.20;;;7.60;;
12880;SDS011;6508;53.786;9.996;2024-03-06T12:11:44;7.75;;;7.15;;
12880;SDS011;6508;53.786;9.996;2024-03-06T12:14:13;7.65;;;7.15;;
12880;SDS011;6508;53.786;9.996;2024-03-06T12:16:42;8.30;;;7.60;;
12880;SDS011;6508;53.786;9.996;2024-03-06T12:19:10;8.38;;;7.57;;
12880;SDS011;6508;53.786;9.996;2024-03-06T12:21:38;7.68;;;7.05;;
12880;SDS011;6508;53.786;9.996;2024-03-06T12:24:07;7.50;;;7.00;;
12880;SDS011;6508;53.786;9.996;2024-03-06T12:26:35;8.48;;;7.68;;
12880;SDS011;6508;53.786;9.996;2024-03-06T12:29:04;8.13;;;7.50;;
12880;SDS011;6508;53.786;9.996;2024-03-06T12:31:34;8.32;;;7.72;;
12880;SDS011;6508;53.786;9.996;2024-03-06T12:34:04;8.15;;;7.57;;
12880;SDS011;6508;53.786;9.996;2024-03-06T12:36:32;7.07;;;6.57;;
12880;SDS011;6508;53.786;9.996;2024-03-06T12:39:01;7.70;;;7.13;;
12880;SDS011;6508;53.786;9.996;2024-03-06T12:41:29;7.32;;;6.70;;
12880;SDS011;6508;53.786;9.996;2024-03-06T12:43:57;8.10;;;7.47;;
12880;SDS011;6508;53.786;9.996;2024-03-06T12:46:25;8.80;;;8.20;;
12880;SDS011;6508;53.786;9.996;2024-03-06T12:48:53;8.25;;;7.75;;
12880;SDS011;6508;53.786;9.996;2024-03-06T12:51:22;8.40;;;7.90;;
12880;SDS011;6508;53.786;9.996;2024-03-06T12:53:50;8.02;;;7.40;;
12880;SDS011;6508;53.786;9.996;2024-03-06T12:56:18;7.82;;;7.22;;
12880;SDS011;6508;53.786;9.996;2024-03-06T12:58:46;7.40;;;6.80;;
12880;SDS011;6508;53.786;9.996;2024-03-06T13:01:14;7.07;;;6.68;;
12880;SDS011;6508;53.786;9.996;2024-03-06T13:03:42;8.20;;;7.50;;
12880;SDS011;6508;53.786;9.996;2024-03-06T13:06:12;7.97;;;7.20;;
12880;SDS011;6508;53.786;9.996;2024-03-06T13:08:42;8.85;;;8.15;;
12880;SDS011;6508;53.786;9.996;2024-03-06T13:11:10;8.43;;;7.63;;
12880;SDS011;6508;53.786;9.996;2024-03-06T13:13:38;8.80;;;7.97;;
12880;SDS011;6508;53.786;9.996;2024-03-06T13:16:06;7.63;;;7.00;;
12880;SDS011;6508;53.786;9.996;2024-03-06T13:18:39;7.55;;;6.95;;
12880;SDS011;6508;53.786;9.996;2024-03-06T13:21:08;8.68;;;8.00;;
12880;SDS011;6508;53.786;9.996;2024-03-06T13:23:36;9.40;;;8.80;;
12880;SDS011;6508;53.786;9.996;2024-03-06T13:26:06;8.93;;;8.32;;
12880;SDS011;6508;53.786;9.996;2024-03-06T13:28:34;9.57;;;8.98;;
12880;SDS011;6508;53.786;9.996;2024-03-06T13:31:02;10.45;;;9.40;;
12880;SDS011;6508;53.786;9.996;2024-03-06T13:33:29;9.77;;;8.95;;
12880;SDS011;6508;53.786;9.996;2024-03-06T13:35:57;7.85;;;7.35;;
12880;SDS011;6508;53.786;9.996;2024-03-06T13:38:28;8.23;;;7.55;;
12880;SDS011;6508;53.786;9.996;2024-03-06T13:40:56;7.90;;;7.15;;
12880;SDS011;6508;53.786;9.996;2024-03-06T13:43:25;8.77;;;7.97;;
12880;SDS011;6508;53.786;9.996;2024-03-06T13:45:53;8.20;;;7.60;;
12880;SDS011;6508;53.786;9.996;2024-03-06T13:48:21;10.38;;;8.05;;
12880;SDS011;6508;53.786;9.996;2024-03-06T13:50:50;8.38;;;7.60;;
12880;SDS011;6508;53.786;9.996;2024-03-06T13:53:17;7.85;;;7.30;;
12880;SDS011;6508;53.786;9.996;2024-03-06T13:55:45;7.47;;;6.97;;
12880;SDS011;6508;53.786;9.996;2024-03-06T13:58:13;8.48;;;7.80;;
12880;SDS011;6508;53.786;9.996;2024-03-06T14:00:42;7.53;;;6.93;;
12880;SDS011;6508;53.786;9.996;2024-03-06T14:03:11;8.40;;;7.70;;
12880;SDS011;6508;53.786;9.996;2024-03-06T14:05:40;9.10;;;8.25;;
12880;SDS011;6508;53.786;9.996;2024-03-06T14:08:08;8.15;;;7.55;;
12880;SDS011;6508;53.786;9.996;2024-03-06T14:10:38;8.70;;;8.00;;
12880;SDS011;6508;53.786;9.996;2024-03-06T14:13:07;8.77;;;8.05;;
12880;SDS011;6508;53.786;9.996;2024-03-06T14:15:35;10.20;;;9.27;;
12880;SDS011;6508;53.786;9.996;2024-03-06T14:18:06;8.05;;;7.55;;
12880;SDS011;6508;53.786;9.996;2024-03-06T14:20:34;8.75;;;8.25;;
12880;SDS011;6508;53.786;9.996;2024-03-06T14:23:03;8.88;;;8.10;;
12880;SDS011;6508;53.786;9.996;2024-03-06T14:25:31;8.88;;;8.18;;
12880;SDS011;6508;53.786;9.996;2024-03-06T14:28:01;9.38;;;8.68;;
12880;SDS011;6508;53.786;9.996;2024-03-06T14:30:29;8.95;;;8.15;;
12880;SDS011;6508;53.786;9.996;2024-03-06T14:32:57;9.30;;;8.40;;
12880;SDS011;6508;53.786;9.996;2024-03-06T14:35:29;8.98;;;8.27;;
12880;SDS011;6508;53.786;9.996;2024-03-06T14:37:57;9.88;;;8.85;;
12880;SDS011;6508;53.786;9.996;2024-03-06T14:40:26;8.40;;;7.90;;
12880;SDS011;6508;53.786;9.996;2024-03-06T14:42:54;9.30;;;8.73;;
12880;SDS011;6508;53.786;9.996;2024-03-06T14:45:22;9.57;;;8.82;;
12880;SDS011;6508;53.786;9.996;2024-03-06T14:47:49;9.40;;;8.60;;
12880;SDS011;6508;53.786;9.996;2024-03-06T14:50:17;9.52;;;8.80;;
12880;SDS011;6508;53.786;9.996;2024-03-06T14:52:47;8.88;;;8.27;;
12880;SDS011;6508;53.786;9.996;2024-03-06T14:55:14;9.23;;;8.52;;
12880;SDS011;6508;53.786;9.996;2024-03-06T14:57:43;9.20;;;8.48;;
12880;SDS011;6508;53.786;9.996;2024-03-06T15:00:11;9.20;;;8.50;;